sensor_id;sensor_type;location;lat;lon;timestamp;P1;durP1;ratioP1;P2;durP2;ratioP2
8562;SDS011;16392;52.508;13.468;2023-07-20T00:00:38;446.10;;;102.50;;
8562;SDS011;16392;52.508;13.468;2023-07-20T00:03:11;441.87;;;97.70;;
8562;SDS011;16392;52.508;13.468;2023-07-20T00:05:42;442.60;;;100.80;;
8562;SDS011;16392;52.508;13.468;2023-07-20T00:08:09;444.00;;;97.80;;
8562;SDS011;16392;52.508;13.468;2023-07-20T00:10:35;444.37;;;99.17;;
8562;SDS011;16392;52.508;13.468;2023-07-20T00:13:02;442.40;;;94.60;;
8562;SDS011;16392;52.508;13.468;2023-07-20T00:15:29;446.07;;;99.23;;
8562;SDS011;16392;52.508;13.468;2023-07-20T00:17:57;444.23;;;97.20;;
8562;SDS011;16392;52.508;13.468;2023-07-20T00:20:23;441.37;;;96.73;;
8562;SDS011;16392;52.508;13.468;2023-07-20T00:22:50;445.70;;;96.50;;
8562;SDS011;16392;52.508;13.468;2023-07-20T00:25:17;443.20;;;98.13;;
8562;SDS011;16392;52.508;13.468;2023-07-20T00:27:44;444.03;;;96.43;;
8562;SDS011;16392;52.508;13.468;2023-07-20T00:30:11;448.67;;;100.77;;
8562;SDS011;16392;52.508;13.468;2023-07-20T00:32:38;437.30;;;91.93;;
8562;SDS011;16392;52.508;13.468;2023-07-20T00:35:06;441.53;;;95.77;;
8562;SDS011;16392;52.508;13.468;2023-07-20T00:37:33;444.17;;;103.03;;
8562;SDS011;16392;52.508;13.468;2023-07-20T00:40:01;442.20;;;97.53;;
8562;SDS011;16392;52.508;13.468;2023-07-20T00:42:29;442.73;;;99.20;;
8562;SDS011;16392;52.508;13.468;2023-07-20T00:44:56;443.03;;;96.00;;
8562;SDS011;16392;52.508;13.468;2023-07-20T00:47:22;439.60;;;95.50;;
8562;SDS011;16392;52.508;13.468;2023-07-20T00:49:49;440.43;;;94.80;;
8562;SDS011;16392;52.508;13.468;2023-07-20T00:52:27;443.57;;;98.23;;
8562;SDS011;16392;52.508;13.468;2023-07-20T00:54:54;441.03;;;95.40;;
8562;SDS011;16392;52.508;13.468;2023-07-20T00:57:22;440.87;;;94.23;;
8562;SDS011;16392;52.508;13.468;2023-07-20T00:59:50;438.27;;;94.50;;
8562;SDS011;16392;52.508;13.468;2023-07-20T01:02:17;441.27;;;95.30;;
8562;SDS011;16392;52.508;13.468;2023-07-20T01:04:44;438.30;;;94.03;;
8562;SDS011;16392;52.508;13.468;2023-07-20T01:07:11;438.97;;;96.07;;
8562;SDS011;16392;52.508;13.468;2023-07-20T01:09:46;440.93;;;95.93;;
8562;SDS011;16392;52.508;13.468;2023-07-20T01:12:18;441.50;;;95.33;;
8562;SDS011;16392;52.508;13.468;2023-07-20T01:15:02;437.33;;;93.70;;
8562;SDS011;16392;52.508;13.468;2023-07-20T01:17:28;440.30;;;92.87;;
8562;SDS011;16392;52.508;13.468;2023-07-20T01:19:55;441.33;;;96.13;;
8562;SDS011;16392;52.508;13.468;2023-07-20T01:22:29;442.37;;;99.10;;
8562;SDS011;16392;52.508;13.468;2023-07-20T01:25:20;440.83;;;98.47;;
8562;SDS011;16392;52.508;13.468;2023-07-20T01:30:59;442.67;;;96.87;;
8562;SDS011;16392;52.508;13.468;2023-07-20T01:33:31;441.33;;;97.33;;
8562;SDS011;16392;52.508;13.468;2023-07-20T01:35:59;440.40;;;95.90;;
8562;SDS011;16392;52.508;13.468;2023-07-20T01:38:27;446.03;;;96.63;;
8562;SDS011;16392;52.508;13.468;2023-07-20T01:40:55;443.03;;;97.23;;
8562;SDS011;16392;52.508;13.468;2023-07-20T01:43:23;441.53;;;96.40;;
8562;SDS011;16392;52.508;13.468;2023-07-20T01:45:49;447.40;;;98.43;;
8562;SDS011;16392;52.508;13.468;2023-07-20T01:48:16;442.50;;;96.13;;
8562;SDS011;16392;52.508;13.468;2023-07-20T01:50:44;442.43;;;95.67;;
8562;SDS011;16392;52.508;13.468;2023-07-20T01:53:11;457.57;;;98.73;;
8562;SDS011;16392;52.508;13.468;2023-07-20T01:55:37;442.87;;;95.77;;
8562;SDS011;16392;52.508;13.468;2023-07-20T01:58:04;447.20;;;98.33;;
8562;SDS011;16392;52.508;13.468;2023-07-20T02:00:31;446.77;;;97.47;;
8562;SDS011;16392;52.508;13.468;2023-07-20T02:02:58;441.07;;;93.53;;
8562;SDS011;16392;52.508;13.468;2023-07-20T02:05:24;444.17;;;95.00;;
8562;SDS011;16392;52.508;13.468;2023-07-20T02:07:52;442.80;;;97.30;;
8562;SDS011;16392;52.508;13.468;2023-07-20T02:10:19;442.17;;;96.27;;
8562;SDS011;16392;52.508;13.468;2023-07-20T02:12:45;441.97;;;97.60;;
8562;SDS011;16392;52.508;13.468;2023-07-20T02:15:12;446.57;;;99.53;;
8562;SDS011;16392;52.508;13.468;2023-07-20T02:17:41;441.07;;;94.77;;
8562;SDS011;16392;52.508;13.468;2023-07-20T02:20:08;440.50;;;96.17;;
8562;SDS011;16392;52.508;13.468;2023-07-20T02:22:35;444.40;;;95.20;;
8562;SDS011;16392;52.508;13.468;2023-07-20T02:25:04;442.13;;;95.10;;
8562;SDS011;16392;52.508;13.468;2023-07-20T02:27:32;444.57;;;98.50;;
8562;SDS011;16392;52.508;13.468;2023-07-20T02:29:58;440.77;;;92.90;;
8562;SDS011;16392;52.508;13.468;2023-07-20T02:32:25;443.47;;;97.37;;
8562;SDS011;16392;52.508;13.468;2023-07-20T02:34:52;439.37;;;93.17;;
8562;SDS011;16392;52.508;13.468;2023-07-20T02:37:18;442.23;;;95.03;;
8562;SDS011;16392;52.508;13.468;2023-07-20T02:39:45;443.40;;;96.17;;
8562;SDS011;16392;52.508;13.468;2023-07-20T02:42:13;444.37;;;99.23;;
8562;SDS011;16392;52.508;13.468;2023-07-20T02:44:40;438.60;;;96.20;;
8562;SDS011;16392;52.508;13.468;2023-07-20T02:47:06;443.77;;;97.73;;
8562;SDS011;16392;52.508;13.468;2023-07-20T02:49:34;436.40;;;91.13;;
8562;SDS011;16392;52.508;13.468;2023-07-20T02:52:00;438.13;;;96.30;;
8562;SDS011;16392;52.508;13.468;2023-07-20T02:54:28;440.33;;;97.13;;
8562;SDS011;16392;52.508;13.468;2023-07-20T02:56:55;440.77;;;95.37;;
8562;SDS011;16392;52.508;13.468;2023-07-20T02:59:23;439.80;;;97.20;;
8562;SDS011;16392;52.508;13.468;2023-07-20T03:01:50;437.13;;;94.63;;
8562;SDS011;16392;52.508;13.468;2023-07-20T03:04:16;443.83;;;97.87;;
8562;SDS011;16392;52.508;13.468;2023-07-20T03:06:43;441.53;;;93.17;;
8562;SDS011;16392;52.508;13.468;2023-07-20T03:09:10;436.80;;;94.27;;
8562;SDS011;16392;52.508;13.468;2023-07-20T03:11:36;441.17;;;97.47;;
8562;SDS011;16392;52.508;13.468;2023-07-20T03:14:03;438.90;;;95.00;;
8562;SDS011;16392;52.508;13.468;2023-07-20T03:16:31;436.30;;;94.57;;
8562;SDS011;16392;52.508;13.468;2023-07-20T03:18:58;440.83;;;96.33;;
8562;SDS011;16392;52.508;13.468;2023-07-20T03:21:25;447.43;;;95.87;;
8562;SDS011;16392;52.508;13.468;2023-07-20T03:23:52;440.03;;;98.20;;
8562;SDS011;16392;52.508;13.468;2023-07-20T03:26:18;445.13;;;96.23;;
8562;SDS011;16392;52.508;13.468;2023-07-20T03:28:45;440.63;;;93.50;;
8562;SDS011;16392;52.508;13.468;2023-07-20T03:31:12;440.70;;;97.77;;
8562;SDS011;16392;52.508;13.468;2023-07-20T03:33:41;439.33;;;96.23;;
8562;SDS011;16392;52.508;13.468;2023-07-20T03:36:08;439.00;;;92.17;;
8562;SDS011;16392;52.508;13.468;2023-07-20T03:38:35;444.33;;;96.80;;
8562;SDS011;16392;52.508;13.468;2023-07-20T03:41:02;441.33;;;95.67;;
8562;SDS011;16392;52.508;13.468;2023-07-20T03:43:28;440.13;;;92.33;;
8562;SDS011;16392;52.508;13.468;2023-07-20T03:45:55;440.63;;;93.63;;
8562;SDS011;16392;52.508;13.468;2023-07-20T03:48:23;447.13;;;96.60;;
8562;SDS011;16392;52.508;13.468;2023-07-20T03:50:52;443.30;;;98.47;;
8562;SDS011;16392;52.508;13.468;2023-07-20T03:53:20;440.23;;;94.20;;
8562;SDS011;16392;52.508;13.468;2023-07-20T03:55:48;438.63;;;92.87;;
8562;SDS011;16392;52.508;13.468;2023-07-20T03:58:16;437.70;;;95.67;;
8562;SDS011;16392;52.508;13.468;2023-07-20T04:00:44;447.20;;;120.23;;
8562;SDS011;16392;52.508;13.468;2023-07-20T04:03:11;438.37;;;93.13;;
8562;SDS011;16392;52.508;13.468;2023-07-20T04:05:38;442.57;;;96.50;;
8562;SDS011;16392;52.508;13.468;2023-07-20T04:08:05;440.87;;;93.77;;
8562;SDS011;16392;52.508;13.468;2023-07-20T04:10:32;442.23;;;94.77;;
8562;SDS011;16392;52.508;13.468;2023-07-20T04:12:59;439.00;;;94.07;;
8562;SDS011;16392;52.508;13.468;2023-07-20T04:15:26;440.00;;;96.63;;
8562;SDS011;16392;52.508;13.468;2023-07-20T04:17:53;440.70;;;95.47;;
8562;SDS011;16392;52.508;13.468;2023-07-20T04:20:21;441.47;;;94.57;;
8562;SDS011;16392;52.508;13.468;2023-07-20T04:22:48;444.30;;;97.80;;
8562;SDS011;16392;52.508;13.468;2023-07-20T04:25:16;444.07;;;97.67;;
8562;SDS011;16392;52.508;13.468;2023-07-20T04:27:42;443.03;;;98.03;;
8562;SDS011;16392;52.508;13.468;2023-07-20T04:30:09;447.33;;;99.30;;
8562;SDS011;16392;52.508;13.468;2023-07-20T04:32:37;447.60;;;100.00;;
8562;SDS011;16392;52.508;13.468;2023-07-20T04:35:05;457.27;;;96.30;;
8562;SDS011;16392;52.508;13.468;2023-07-20T04:37:32;446.70;;;99.23;;
8562;SDS011;16392;52.508;13.468;2023-07-20T04:39:59;448.13;;;101.50;;
8562;SDS011;16392;52.508;13.468;2023-07-20T04:42:27;442.73;;;96.30;;
8562;SDS011;16392;52.508;13.468;2023-07-20T04:44:53;445.03;;;96.23;;
8562;SDS011;16392;52.508;13.468;2023-07-20T04:47:20;445.80;;;97.70;;
8562;SDS011;16392;52.508;13.468;2023-07-20T04:49:46;444.60;;;96.90;;
8562;SDS011;16392;52.508;13.468;2023-07-20T04:52:13;448.77;;;100.43;;
8562;SDS011;16392;52.508;13.468;2023-07-20T04:54:40;446.47;;;98.93;;
8562;SDS011;16392;52.508;13.468;2023-07-20T04:57:11;445.00;;;96.17;;
8562;SDS011;16392;52.508;13.468;2023-07-20T04:59:39;442.13;;;94.67;;
8562;SDS011;16392;52.508;13.468;2023-07-20T05:02:06;447.10;;;97.77;;
8562;SDS011;16392;52.508;13.468;2023-07-20T05:04:32;447.23;;;99.10;;
8562;SDS011;16392;52.508;13.468;2023-07-20T05:06:59;447.27;;;98.87;;
8562;SDS011;16392;52.508;13.468;2023-07-20T05:09:26;450.83;;;100.00;;
8562;SDS011;16392;52.508;13.468;2023-07-20T05:11:52;453.67;;;108.37;;
8562;SDS011;16392;52.508;13.468;2023-07-20T05:14:19;451.97;;;98.67;;
8562;SDS011;16392;52.508;13.468;2023-07-20T05:16:47;449.87;;;99.37;;
8562;SDS011;16392;52.508;13.468;2023-07-20T05:19:13;453.53;;;99.57;;
8562;SDS011;16392;52.508;13.468;2023-07-20T05:21:40;455.90;;;100.97;;
8562;SDS011;16392;52.508;13.468;2023-07-20T05:24:07;453.77;;;100.20;;
8562;SDS011;16392;52.508;13.468;2023-07-20T05:26:33;451.37;;;100.80;;
8562;SDS011;16392;52.508;13.468;2023-07-20T05:29:00;453.50;;;104.30;;
8562;SDS011;16392;52.508;13.468;2023-07-20T05:31:27;453.67;;;102.13;;
8562;SDS011;16392;52.508;13.468;2023-07-20T05:33:56;454.40;;;99.00;;
8562;SDS011;16392;52.508;13.468;2023-07-20T05:36:24;459.90;;;105.47;;
8562;SDS011;16392;52.508;13.468;2023-07-20T05:38:50;466.53;;;105.23;;
8562;SDS011;16392;52.508;13.468;2023-07-20T05:41:17;468.10;;;107.27;;
8562;SDS011;16392;52.508;13.468;2023-07-20T05:43:43;464.70;;;111.23;;
8562;SDS011;16392;52.508;13.468;2023-07-20T05:46:10;467.80;;;113.13;;
8562;SDS011;16392;52.508;13.468;2023-07-20T05:48:36;460.20;;;108.43;;
8562;SDS011;16392;52.508;13.468;2023-07-20T05:51:05;465.80;;;113.57;;
8562;SDS011;16392;52.508;13.468;2023-07-20T05:53:32;465.57;;;110.07;;
8562;SDS011;16392;52.508;13.468;2023-07-20T05:55:58;467.07;;;114.53;;
8562;SDS011;16392;52.508;13.468;2023-07-20T05:58:25;470.03;;;122.23;;
8562;SDS011;16392;52.508;13.468;2023-07-20T06:00:53;472.67;;;130.07;;
8562;SDS011;16392;52.508;13.468;2023-07-20T06:03:20;471.70;;;117.33;;
8562;SDS011;16392;52.508;13.468;2023-07-20T06:05:47;471.03;;;117.47;;
8562;SDS011;16392;52.508;13.468;2023-07-20T06:08:15;469.60;;;121.13;;
8562;SDS011;16392;52.508;13.468;2023-07-20T06:10:41;467.63;;;119.93;;
8562;SDS011;16392;52.508;13.468;2023-07-20T06:13:09;472.27;;;122.63;;
8562;SDS011;16392;52.508;13.468;2023-07-20T06:15:35;466.90;;;116.80;;
8562;SDS011;16392;52.508;13.468;2023-07-20T06:18:04;465.70;;;114.33;;
8562;SDS011;16392;52.508;13.468;2023-07-20T06:20:30;466.67;;;114.37;;
8562;SDS011;16392;52.508;13.468;2023-07-20T06:22:57;465.15;;;113.25;;
8562;SDS011;16392;52.508;13.468;2023-07-20T06:25:25;462.83;;;111.87;;
8562;SDS011;16392;52.508;13.468;2023-07-20T06:27:52;465.17;;;112.97;;
8562;SDS011;16392;52.508;13.468;2023-07-20T06:30:19;468.77;;;116.53;;
8562;SDS011;16392;52.508;13.468;2023-07-20T06:32:45;467.37;;;111.70;;
8562;SDS011;16392;52.508;13.468;2023-07-20T06:35:12;462.27;;;110.30;;
8562;SDS011;16392;52.508;13.468;2023-07-20T06:37:40;461.87;;;112.47;;
8562;SDS011;16392;52.508;13.468;2023-07-20T06:40:07;460.83;;;110.47;;
8562;SDS011;16392;52.508;13.468;2023-07-20T06:42:36;464.17;;;112.47;;
8562;SDS011;16392;52.508;13.468;2023-07-20T06:45:03;466.30;;;112.57;;
8562;SDS011;16392;52.508;13.468;2023-07-20T06:47:30;463.00;;;110.53;;
8562;SDS011;16392;52.508;13.468;2023-07-20T06:49:57;472.17;;;113.77;;
8562;SDS011;16392;52.508;13.468;2023-07-20T06:52:23;470.87;;;117.77;;
8562;SDS011;16392;52.508;13.468;2023-07-20T06:54:50;470.87;;;117.83;;
8562;SDS011;16392;52.508;13.468;2023-07-20T06:57:16;472.10;;;121.67;;
8562;SDS011;16392;52.508;13.468;2023-07-20T06:59:44;469.60;;;122.40;;
8562;SDS011;16392;52.508;13.468;2023-07-20T07:02:11;467.27;;;123.13;;
8562;SDS011;16392;52.508;13.468;2023-07-20T07:04:37;468.83;;;120.87;;
8562;SDS011;16392;52.508;13.468;2023-07-20T07:07:04;466.67;;;115.87;;
8562;SDS011;16392;52.508;13.468;2023-07-20T07:09:31;468.93;;;117.93;;
8562;SDS011;16392;52.508;13.468;2023-07-20T07:11:58;471.23;;;122.67;;
8562;SDS011;16392;52.508;13.468;2023-07-20T07:14:24;474.30;;;120.83;;
8562;SDS011;16392;52.508;13.468;2023-07-20T07:16:52;482.57;;;126.13;;
8562;SDS011;16392;52.508;13.468;2023-07-20T07:19:19;482.33;;;134.87;;
8562;SDS011;16392;52.508;13.468;2023-07-20T07:21:45;486.95;;;137.23;;
8562;SDS011;16392;52.508;13.468;2023-07-20T07:24:12;493.30;;;148.50;;
8562;SDS011;16392;52.508;13.468;2023-07-20T07:26:38;494.20;;;160.05;;
8562;SDS011;16392;52.508;13.468;2023-07-20T07:29:05;499.65;;;172.38;;
8562;SDS011;16392;52.508;13.468;2023-07-20T07:31:33;487.60;;;165.57;;
8562;SDS011;16392;52.508;13.468;2023-07-20T07:34:02;484.15;;;166.55;;
8562;SDS011;16392;52.508;13.468;2023-07-20T07:36:29;485.65;;;158.73;;
8562;SDS011;16392;52.508;13.468;2023-07-20T07:38:56;483.00;;;152.23;;
8562;SDS011;16392;52.508;13.468;2023-07-20T07:41:23;483.52;;;148.07;;
8562;SDS011;16392;52.508;13.468;2023-07-20T07:43:49;485.65;;;152.45;;
8562;SDS011;16392;52.508;13.468;2023-07-20T07:46:16;485.02;;;152.07;;
8562;SDS011;16392;52.508;13.468;2023-07-20T07:48:43;486.48;;;148.45;;
8562;SDS011;16392;52.508;13.468;2023-07-20T07:51:10;492.30;;;161.95;;
8562;SDS011;16392;52.508;13.468;2023-07-20T07:53:38;485.30;;;152.20;;
8562;SDS011;16392;52.508;13.468;2023-07-20T07:56:06;490.67;;;160.75;;
8562;SDS011;16392;52.508;13.468;2023-07-20T07:58:33;496.48;;;176.00;;
8562;SDS011;16392;52.508;13.468;2023-07-20T08:01:00;499.63;;;188.38;;
8562;SDS011;16392;52.508;13.468;2023-07-20T08:03:27;495.25;;;180.82;;
8562;SDS011;16392;52.508;13.468;2023-07-20T08:05:54;489.63;;;175.20;;
8562;SDS011;16392;52.508;13.468;2023-07-20T08:08:22;487.63;;;175.82;;
8562;SDS011;16392;52.508;13.468;2023-07-20T08:10:49;489.17;;;178.75;;
8562;SDS011;16392;52.508;13.468;2023-07-20T08:13:19;489.50;;;170.30;;
8562;SDS011;16392;52.508;13.468;2023-07-20T08:15:48;492.15;;;178.35;;
8562;SDS011;16392;52.508;13.468;2023-07-20T08:18:15;495.65;;;182.25;;
8562;SDS011;16392;52.508;13.468;2023-07-20T08:20:43;491.17;;;179.68;;
8562;SDS011;16392;52.508;13.468;2023-07-20T08:23:10;491.83;;;181.32;;
8562;SDS011;16392;52.508;13.468;2023-07-20T08:25:37;490.52;;;180.85;;
8562;SDS011;16392;52.508;13.468;2023-07-20T08:28:09;492.70;;;181.75;;
8562;SDS011;16392;52.508;13.468;2023-07-20T08:30:39;484.55;;;168.63;;
8562;SDS011;16392;52.508;13.468;2023-07-20T08:33:07;484.00;;;162.45;;
8562;SDS011;16392;52.508;13.468;2023-07-20T08:35:34;489.20;;;161.60;;
8562;SDS011;16392;52.508;13.468;2023-07-20T08:38:00;490.30;;;166.05;;
8562;SDS011;16392;52.508;13.468;2023-07-20T08:40:29;486.92;;;164.77;;
8562;SDS011;16392;52.508;13.468;2023-07-20T08:42:57;487.30;;;169.60;;
8562;SDS011;16392;52.508;13.468;2023-07-20T08:45:25;490.60;;;164.55;;
8562;SDS011;16392;52.508;13.468;2023-07-20T08:47:53;490.33;;;172.27;;
8562;SDS011;16392;52.508;13.468;2023-07-20T08:50:21;488.08;;;168.20;;
8562;SDS011;16392;52.508;13.468;2023-07-20T08:52:49;489.80;;;167.25;;
8562;SDS011;16392;52.508;13.468;2023-07-20T08:55:18;490.70;;;174.30;;
8562;SDS011;16392;52.508;13.468;2023-07-20T08:57:46;490.15;;;166.13;;
8562;SDS011;16392;52.508;13.468;2023-07-20T09:00:16;483.15;;;157.85;;
8562;SDS011;16392;52.508;13.468;2023-07-20T09:02:45;485.27;;;157.35;;
8562;SDS011;16392;52.508;13.468;2023-07-20T09:05:15;489.65;;;166.48;;
8562;SDS011;16392;52.508;13.468;2023-07-20T09:07:42;494.38;;;176.10;;
8562;SDS011;16392;52.508;13.468;2023-07-20T09:10:09;498.60;;;198.10;;
8562;SDS011;16392;52.508;13.468;2023-07-20T09:12:37;506.25;;;235.35;;
8562;SDS011;16392;52.508;13.468;2023-07-20T09:15:04;508.45;;;252.00;;
8562;SDS011;16392;52.508;13.468;2023-07-20T09:17:33;507.45;;;263.73;;
8562;SDS011;16392;52.508;13.468;2023-07-20T09:20:01;508.10;;;277.08;;
8562;SDS011;16392;52.508;13.468;2023-07-20T09:22:30;511.80;;;294.75;;
8562;SDS011;16392;52.508;13.468;2023-07-20T09:24:57;515.05;;;314.08;;
8562;SDS011;16392;52.508;13.468;2023-07-20T09:27:29;514.03;;;321.73;;
8562;SDS011;16392;52.508;13.468;2023-07-20T09:30:01;508.90;;;292.95;;
8562;SDS011;16392;52.508;13.468;2023-07-20T09:32:29;501.05;;;268.67;;
8562;SDS011;16392;52.508;13.468;2023-07-20T09:34:57;509.27;;;276.85;;
8562;SDS011;16392;52.508;13.468;2023-07-20T09:37:23;517.35;;;332.13;;
8562;SDS011;16392;52.508;13.468;2023-07-20T09:39:52;514.30;;;318.58;;
8562;SDS011;16392;52.508;13.468;2023-07-20T09:42:19;507.27;;;281.35;;
8562;SDS011;16392;52.508;13.468;2023-07-20T09:44:47;503.10;;;255.55;;
8562;SDS011;16392;52.508;13.468;2023-07-20T09:47:15;498.88;;;244.13;;
8562;SDS011;16392;52.508;13.468;2023-07-20T09:49:48;502.05;;;236.10;;
8562;SDS011;16392;52.508;13.468;2023-07-20T09:52:16;494.17;;;211.73;;
8562;SDS011;16392;52.508;13.468;2023-07-20T09:54:44;495.02;;;193.10;;
8562;SDS011;16392;52.508;13.468;2023-07-20T09:57:12;485.63;;;173.98;;
8562;SDS011;16392;52.508;13.468;2023-07-20T09:59:40;485.63;;;167.23;;
8562;SDS011;16392;52.508;13.468;2023-07-20T10:02:09;486.58;;;164.98;;
8562;SDS011;16392;52.508;13.468;2023-07-20T10:04:42;481.35;;;148.25;;
8562;SDS011;16392;52.508;13.468;2023-07-20T10:07:10;480.17;;;142.75;;
8562;SDS011;16392;52.508;13.468;2023-07-20T10:09:39;478.27;;;142.30;;
8562;SDS011;16392;52.508;13.468;2023-07-20T10:12:07;474.37;;;138.27;;
8562;SDS011;16392;52.508;13.468;2023-07-20T10:14:36;473.87;;;131.87;;
8562;SDS011;16392;52.508;13.468;2023-07-20T10:17:07;468.97;;;120.20;;
8562;SDS011;16392;52.508;13.468;2023-07-20T10:19:38;468.53;;;118.07;;
8562;SDS011;16392;52.508;13.468;2023-07-20T10:22:10;468.80;;;116.13;;
8562;SDS011;16392;52.508;13.468;2023-07-20T10:24:45;467.23;;;111.43;;
8562;SDS011;16392;52.508;13.468;2023-07-20T10:27:12;469.77;;;114.10;;
8562;SDS011;16392;52.508;13.468;2023-07-20T10:29:40;471.73;;;113.30;;
8562;SDS011;16392;52.508;13.468;2023-07-20T10:32:07;475.57;;;123.23;;
8562;SDS011;16392;52.508;13.468;2023-07-20T10:34:35;474.45;;;120.63;;
8562;SDS011;16392;52.508;13.468;2023-07-20T10:37:02;480.20;;;126.97;;
8562;SDS011;16392;52.508;13.468;2023-07-20T10:39:30;481.05;;;130.30;;
8562;SDS011;16392;52.508;13.468;2023-07-20T10:42:03;475.10;;;125.88;;
8562;SDS011;16392;52.508;13.468;2023-07-20T10:44:32;472.27;;;125.45;;
8562;SDS011;16392;52.508;13.468;2023-07-20T10:46:59;476.42;;;130.70;;
8562;SDS011;16392;52.508;13.468;2023-07-20T10:49:27;477.35;;;129.23;;
8562;SDS011;16392;52.508;13.468;2023-07-20T10:51:57;477.90;;;134.75;;
8562;SDS011;16392;52.508;13.468;2023-07-20T10:54:33;474.23;;;132.73;;
8562;SDS011;16392;52.508;13.468;2023-07-20T10:59:51;477.55;;;134.32;;
8562;SDS011;16392;52.508;13.468;2023-07-20T11:02:17;476.98;;;137.10;;
8562;SDS011;16392;52.508;13.468;2023-07-20T11:04:45;477.40;;;138.15;;
8562;SDS011;16392;52.508;13.468;2023-07-20T11:07:15;476.45;;;138.27;;
8562;SDS011;16392;52.508;13.468;2023-07-20T11:09:42;478.10;;;139.68;;
8562;SDS011;16392;52.508;13.468;2023-07-20T11:12:09;479.50;;;142.43;;
8562;SDS011;16392;52.508;13.468;2023-07-20T11:14:41;482.92;;;141.55;;
8562;SDS011;16392;52.508;13.468;2023-07-20T11:17:12;481.88;;;142.43;;
8562;SDS011;16392;52.508;13.468;2023-07-20T11:19:40;482.02;;;143.35;;
8562;SDS011;16392;52.508;13.468;2023-07-20T11:22:08;481.40;;;143.38;;
8562;SDS011;16392;52.508;13.468;2023-07-20T11:24:37;483.48;;;153.20;;
8562;SDS011;16392;52.508;13.468;2023-07-20T11:27:05;482.52;;;146.70;;
8562;SDS011;16392;52.508;13.468;2023-07-20T11:29:31;481.85;;;151.80;;
8562;SDS011;16392;52.508;13.468;2023-07-20T11:31:59;484.67;;;157.80;;
8562;SDS011;16392;52.508;13.468;2023-07-20T11:34:27;482.48;;;152.07;;
8562;SDS011;16392;52.508;13.468;2023-07-20T11:36:55;483.00;;;143.88;;
8562;SDS011;16392;52.508;13.468;2023-07-20T11:39:22;488.75;;;151.68;;
8562;SDS011;16392;52.508;13.468;2023-07-20T11:41:50;483.20;;;152.93;;
8562;SDS011;16392;52.508;13.468;2023-07-20T11:44:18;484.20;;;157.05;;
8562;SDS011;16392;52.508;13.468;2023-07-20T11:46:46;485.58;;;155.32;;
8562;SDS011;16392;52.508;13.468;2023-07-20T11:49:14;490.00;;;163.30;;
8562;SDS011;16392;52.508;13.468;2023-07-20T11:51:40;493.15;;;167.13;;
8562;SDS011;16392;52.508;13.468;2023-07-20T11:54:07;497.33;;;185.35;;
8562;SDS011;16392;52.508;13.468;2023-07-20T11:56:35;493.60;;;189.40;;
8562;SDS011;16392;52.508;13.468;2023-07-20T11:59:01;496.70;;;196.10;;
8562;SDS011;16392;52.508;13.468;2023-07-20T12:01:29;503.20;;;223.98;;
8562;SDS011;16392;52.508;13.468;2023-07-20T12:03:59;504.58;;;234.05;;
8562;SDS011;16392;52.508;13.468;2023-07-20T12:06:28;501.98;;;222.68;;
8562;SDS011;16392;52.508;13.468;2023-07-20T12:08:56;498.92;;;225.70;;
8562;SDS011;16392;52.508;13.468;2023-07-20T12:11:30;500.90;;;216.05;;
8562;SDS011;16392;52.508;13.468;2023-07-20T12:13:58;492.88;;;194.48;;
8562;SDS011;16392;52.508;13.468;2023-07-20T12:16:26;496.42;;;191.95;;
8562;SDS011;16392;52.508;13.468;2023-07-20T12:18:58;487.25;;;168.98;;
8562;SDS011;16392;52.508;13.468;2023-07-20T12:21:27;492.80;;;170.65;;
8562;SDS011;16392;52.508;13.468;2023-07-20T12:23:55;484.88;;;157.13;;
8562;SDS011;16392;52.508;13.468;2023-07-20T12:26:23;479.83;;;142.38;;
8562;SDS011;16392;52.508;13.468;2023-07-20T12:28:50;482.80;;;145.27;;
8562;SDS011;16392;52.508;13.468;2023-07-20T12:31:17;484.52;;;150.23;;
8562;SDS011;16392;52.508;13.468;2023-07-20T12:33:44;484.23;;;143.43;;
8562;SDS011;16392;52.508;13.468;2023-07-20T12:36:11;485.27;;;146.95;;
8562;SDS011;16392;52.508;13.468;2023-07-20T12:38:39;483.25;;;144.60;;
8562;SDS011;16392;52.508;13.468;2023-07-20T12:41:06;487.10;;;145.43;;
8562;SDS011;16392;52.508;13.468;2023-07-20T12:43:33;480.50;;;140.15;;
8562;SDS011;16392;52.508;13.468;2023-07-20T12:46:00;481.83;;;141.35;;
8562;SDS011;16392;52.508;13.468;2023-07-20T12:48:27;485.92;;;147.88;;
8562;SDS011;16392;52.508;13.468;2023-07-20T12:50:53;489.63;;;148.27;;
8562;SDS011;16392;52.508;13.468;2023-07-20T12:53:20;493.17;;;158.18;;
8562;SDS011;16392;52.508;13.468;2023-07-20T12:55:48;502.65;;;180.52;;
8562;SDS011;16392;52.508;13.468;2023-07-20T12:58:15;505.88;;;209.38;;
8562;SDS011;16392;52.508;13.468;2023-07-20T13:00:41;512.38;;;241.82;;
8562;SDS011;16392;52.508;13.468;2023-07-20T13:03:09;516.15;;;273.85;;
8562;SDS011;16392;52.508;13.468;2023-07-20T13:05:36;520.53;;;304.95;;
8562;SDS011;16392;52.508;13.468;2023-07-20T13:08:02;524.17;;;321.13;;
8562;SDS011;16392;52.508;13.468;2023-07-20T13:10:30;522.53;;;323.92;;
8562;SDS011;16392;52.508;13.468;2023-07-20T13:12:59;524.05;;;333.67;;
8562;SDS011;16392;52.508;13.468;2023-07-20T13:15:29;532.78;;;376.60;;
8562;SDS011;16392;52.508;13.468;2023-07-20T13:17:57;528.92;;;359.25;;
8562;SDS011;16392;52.508;13.468;2023-07-20T13:20:25;537.50;;;395.55;;
8562;SDS011;16392;52.508;13.468;2023-07-20T13:22:52;534.30;;;382.33;;
8562;SDS011;16392;52.508;13.468;2023-07-20T13:25:18;533.33;;;392.75;;
8562;SDS011;16392;52.508;13.468;2023-07-20T13:27:45;537.58;;;411.48;;
8562;SDS011;16392;52.508;13.468;2023-07-20T13:30:13;535.80;;;391.27;;
8562;SDS011;16392;52.508;13.468;2023-07-20T13:32:42;528.85;;;379.45;;
8562;SDS011;16392;52.508;13.468;2023-07-20T13:35:09;527.17;;;385.85;;
8562;SDS011;16392;52.508;13.468;2023-07-20T13:37:36;521.03;;;352.77;;
8562;SDS011;16392;52.508;13.468;2023-07-20T13:40:03;529.22;;;379.45;;
8562;SDS011;16392;52.508;13.468;2023-07-20T13:42:31;526.15;;;385.13;;
8562;SDS011;16392;52.508;13.468;2023-07-20T13:44:57;547.42;;;442.50;;
8562;SDS011;16392;52.508;13.468;2023-07-20T13:47:25;554.80;;;466.08;;
8562;SDS011;16392;52.508;13.468;2023-07-20T13:49:52;546.00;;;448.27;;
8562;SDS011;16392;52.508;13.468;2023-07-20T13:52:19;538.33;;;428.20;;
8562;SDS011;16392;52.508;13.468;2023-07-20T13:54:45;557.40;;;478.02;;
8562;SDS011;16392;52.508;13.468;2023-07-20T13:57:12;563.13;;;483.58;;
8562;SDS011;16392;52.508;13.468;2023-07-20T13:59:39;584.92;;;517.80;;
8562;SDS011;16392;52.508;13.468;2023-07-20T14:02:06;575.20;;;505.17;;
8562;SDS011;16392;52.508;13.468;2023-07-20T14:04:34;536.10;;;431.70;;
8562;SDS011;16392;52.508;13.468;2023-07-20T14:07:01;535.72;;;418.45;;
8562;SDS011;16392;52.508;13.468;2023-07-20T14:09:28;523.15;;;360.10;;